sensor_id;sensor_type;location;lat;lon;timestamp;temperature;humidity
9816;DHT22;4947;44.526;11.360;2022-08-01T00:00:19;24.10;70.30
9816;DHT22;4947;44.526;11.360;2022-08-01T00:02:46;24.20;71.10
9816;DHT22;4947;44.526;11.360;2022-08-01T00:05:14;24.10;71.20
9816;DHT22;4947;44.526;11.360;2022-08-01T00:07:42;24.10;70.90
9816;DHT22;4947;44.526;11.360;2022-08-01T00:10:12;24.00;71.10
9816;DHT22;4947;44.526;11.360;2022-08-01T00:12:40;23.90;71.90
9816;DHT22;4947;44.526;11.360;2022-08-01T00:15:12;23.90;71.70
9816;DHT22;4947;44.526;11.360;2022-08-01T00:17:41;23.90;70.80
9816;DHT22;4947;44.526;11.360;2022-08-01T00:20:12;23.90;70.80
9816;DHT22;4947;44.526;11.360;2022-08-01T00:22:40;23.80;72.30
9816;DHT22;4947;44.526;11.360;2022-08-01T00:25:08;23.70;72.50
9816;DHT22;4947;44.526;11.360;2022-08-01T00:27:36;23.70;73.00
9816;DHT22;4947;44.526;11.360;2022-08-01T00:30:04;23.70;73.40
9816;DHT22;4947;44.526;11.360;2022-08-01T00:32:32;23.70;73.50
9816;DHT22;4947;44.526;11.360;2022-08-01T00:35:01;23.70;73.10
9816;DHT22;4947;44.526;11.360;2022-08-01T00:37:29;23.70;72.50
9816;DHT22;4947;44.526;11.360;2022-08-01T00:39:57;23.60;72.50
9816;DHT22;4947;44.526;11.360;2022-08-01T00:42:24;23.60;73.20
9816;DHT22;4947;44.526;11.360;2022-08-01T00:44:53;23.50;72.50
9816;DHT22;4947;44.526;11.360;2022-08-01T00:47:21;23.50;72.30
9816;DHT22;4947;44.526;11.360;2022-08-01T00:49:48;23.40;72.50
9816;DHT22;4947;44.526;11.360;2022-08-01T00:52:18;23.40;72.70
9816;DHT22;4947;44.526;11.360;2022-08-01T00:54:45;23.50;72.80
9816;DHT22;4947;44.526;11.360;2022-08-01T00:57:13;23.50;73.00
9816;DHT22;4947;44.526;11.360;2022-08-01T00:59:41;23.50;73.10
9816;DHT22;4947;44.526;11.360;2022-08-01T01:02:09;23.50;73.20
9816;DHT22;4947;44.526;11.360;2022-08-01T01:04:37;23.50;73.30
9816;DHT22;4947;44.526;11.360;2022-08-01T01:07:09;23.50;72.80
9816;DHT22;4947;44.526;11.360;2022-08-01T01:09:44;23.50;73.10
9816;DHT22;4947;44.526;11.360;2022-08-01T01:12:20;23.60;72.10
9816;DHT22;4947;44.526;11.360;2022-08-01T01:14:54;23.60;70.40
9816;DHT22;4947;44.526;11.360;2022-08-01T01:17:27;23.60;70.50
9816;DHT22;4947;44.526;11.360;2022-08-01T01:19:57;23.60;70.80
9816;DHT22;4947;44.526;11.360;2022-08-01T01:22:53;23.60;71.40
9816;DHT22;4947;44.526;11.360;2022-08-01T01:25:39;23.60;70.20
9816;DHT22;4947;44.526;11.360;2022-08-01T01:28:12;23.60;69.10
9816;DHT22;4947;44.526;11.360;2022-08-01T01:30:48;23.60;68.90
9816;DHT22;4947;44.526;11.360;2022-08-01T01:33:19;23.60;68.60
9816;DHT22;4947;44.526;11.360;2022-08-01T01:35:51;23.60;68.80
9816;DHT22;4947;44.526;11.360;2022-08-01T01:38:21;23.60;68.00
9816;DHT22;4947;44.526;11.360;2022-08-01T01:40:52;23.60;68.00
9816;DHT22;4947;44.526;11.360;2022-08-01T01:43:21;23.60;67.80
9816;DHT22;4947;44.526;11.360;2022-08-01T01:45:52;23.60;67.70
9816;DHT22;4947;44.526;11.360;2022-08-01T01:48:21;23.60;67.60
9816;DHT22;4947;44.526;11.360;2022-08-01T01:50:51;23.60;67.00
9816;DHT22;4947;44.526;11.360;2022-08-01T01:53:21;23.50;66.70
9816;DHT22;4947;44.526;11.360;2022-08-01T01:55:52;23.50;66.10
9816;DHT22;4947;44.526;11.360;2022-08-01T01:58:22;23.50;65.20
9816;DHT22;4947;44.526;11.360;2022-08-01T02:00:53;23.60;64.90
9816;DHT22;4947;44.526;11.360;2022-08-01T02:03:22;23.60;65.20
9816;DHT22;4947;44.526;11.360;2022-08-01T02:05:53;23.50;65.40
9816;DHT22;4947;44.526;11.360;2022-08-01T02:08:22;23.50;65.80
9816;DHT22;4947;44.526;11.360;2022-08-01T02:10:52;23.50;65.90
9816;DHT22;4947;44.526;11.360;2022-08-01T02:13:34;23.50;65.10
9816;DHT22;4947;44.526;11.360;2022-08-01T02:16:05;23.50;63.70
9816;DHT22;4947;44.526;11.360;2022-08-01T02:18:33;23.40;63.90
9816;DHT22;4947;44.526;11.360;2022-08-01T02:21:04;23.50;63.10
9816;DHT22;4947;44.526;11.360;2022-08-01T02:23:34;23.50;63.10
9816;DHT22;4947;44.526;11.360;2022-08-01T02:26:08;23.50;61.90
9816;DHT22;4947;44.526;11.360;2022-08-01T02:28:42;23.60;62.30
9816;DHT22;4947;44.526;11.360;2022-08-01T02:31:17;23.60;62.00
9816;DHT22;4947;44.526;11.360;2022-08-01T02:33:50;23.60;61.30
9816;DHT22;4947;44.526;11.360;2022-08-01T02:36:19;23.60;62.20
9816;DHT22;4947;44.526;11.360;2022-08-01T02:38:48;23.60;61.30
9816;DHT22;4947;44.526;11.360;2022-08-01T02:41:19;23.60;61.40
9816;DHT22;4947;44.526;11.360;2022-08-01T02:43:49;23.70;62.00
9816;DHT22;4947;44.526;11.360;2022-08-01T02:46:22;23.70;60.70
9816;DHT22;4947;44.526;11.360;2022-08-01T02:48:52;23.70;60.90
9816;DHT22;4947;44.526;11.360;2022-08-01T02:51:22;23.80;60.60
9816;DHT22;4947;44.526;11.360;2022-08-01T02:53:52;23.70;60.50
9816;DHT22;4947;44.526;11.360;2022-08-01T02:56:21;23.70;61.10
9816;DHT22;4947;44.526;11.360;2022-08-01T02:58:51;23.70;61.00
9816;DHT22;4947;44.526;11.360;2022-08-01T03:01:22;23.70;61.20
9816;DHT22;4947;44.526;11.360;2022-08-01T03:03:49;23.70;60.60
9816;DHT22;4947;44.526;11.360;2022-08-01T03:06:18;23.70;61.00
9816;DHT22;4947;44.526;11.360;2022-08-01T03:08:46;23.70;61.40
9816;DHT22;4947;44.526;11.360;2022-08-01T03:11:15;23.60;61.30
9816;DHT22;4947;44.526;11.360;2022-08-01T03:13:44;23.60;61.30
9816;DHT22;4947;44.526;11.360;2022-08-01T03:16:15;23.70;61.20
9816;DHT22;4947;44.526;11.360;2022-08-01T03:18:45;23.60;61.10
9816;DHT22;4947;44.526;11.360;2022-08-01T03:21:14;23.60;61.40
9816;DHT22;4947;44.526;11.360;2022-08-01T03:23:43;23.60;61.80
9816;DHT22;4947;44.526;11.360;2022-08-01T03:26:12;23.50;62.50
9816;DHT22;4947;44.526;11.360;2022-08-01T03:28:41;23.50;62.50
9816;DHT22;4947;44.526;11.360;2022-08-01T03:31:13;23.50;62.30
9816;DHT22;4947;44.526;11.360;2022-08-01T03:33:41;23.50;62.20
9816;DHT22;4947;44.526;11.360;2022-08-01T03:36:11;23.50;61.80
9816;DHT22;4947;44.526;11.360;2022-08-01T03:38:40;23.50;61.60
9816;DHT22;4947;44.526;11.360;2022-08-01T03:41:13;23.50;61.70
9816;DHT22;4947;44.526;11.360;2022-08-01T03:43:46;23.40;62.30
9816;DHT22;4947;44.526;11.360;2022-08-01T03:46:20;23.50;61.40
9816;DHT22;4947;44.526;11.360;2022-08-01T03:48:50;23.40;61.30
9816;DHT22;4947;44.526;11.360;2022-08-01T03:51:22;23.40;62.00
9816;DHT22;4947;44.526;11.360;2022-08-01T03:53:50;23.40;61.40
9816;DHT22;4947;44.526;11.360;2022-08-01T03:56:18;23.40;62.10
9816;DHT22;4947;44.526;11.360;2022-08-01T03:58:47;23.40;62.00
9816;DHT22;4947;44.526;11.360;2022-08-01T04:01:15;23.40;61.70
9816;DHT22;4947;44.526;11.360;2022-08-01T04:03:43;23.40;61.80
9816;DHT22;4947;44.526;11.360;2022-08-01T04:06:11;23.30;61.90
9816;DHT22;4947;44.526;11.360;2022-08-01T04:08:40;23.30;62.30
9816;DHT22;4947;44.526;11.360;2022-08-01T04:11:09;23.20;62.90
9816;DHT22;4947;44.526;11.360;2022-08-01T04:13:36;23.20;63.20
9816;DHT22;4947;44.526;11.360;2022-08-01T04:16:04;23.20;62.60
9816;DHT22;4947;44.526;11.360;2022-08-01T04:18:32;23.30;62.10
9816;DHT22;4947;44.526;11.360;2022-08-01T04:20:59;23.30;62.40
9816;DHT22;4947;44.526;11.360;2022-08-01T04:23:27;23.30;62.40
9816;DHT22;4947;44.526;11.360;2022-08-01T04:25:59;23.20;62.30
9816;DHT22;4947;44.526;11.360;2022-08-01T04:28:30;23.30;62.00
9816;DHT22;4947;44.526;11.360;2022-08-01T04:30:59;23.40;61.60
9816;DHT22;4947;44.526;11.360;2022-08-01T04:33:28;23.50;61.30
9816;DHT22;4947;44.526;11.360;2022-08-01T04:35:58;23.60;61.00
9816;DHT22;4947;44.526;11.360;2022-08-01T04:38:27;23.60;60.90
9816;DHT22;4947;44.526;11.360;2022-08-01T04:40:58;23.60;61.70
9816;DHT22;4947;44.526;11.360;2022-08-01T04:43:26;23.60;61.40
9816;DHT22;4947;44.526;11.360;2022-08-01T04:45:54;23.60;61.50
9816;DHT22;4947;44.526;11.360;2022-08-01T04:48:23;23.60;61.90
9816;DHT22;4947;44.526;11.360;2022-08-01T04:50:51;23.60;61.30
9816;DHT22;4947;44.526;11.360;2022-08-01T04:53:20;23.70;61.50
9816;DHT22;4947;44.526;11.360;2022-08-01T04:55:48;23.70;61.40
9816;DHT22;4947;44.526;11.360;2022-08-01T04:58:18;23.70;61.20
9816;DHT22;4947;44.526;11.360;2022-08-01T05:00:45;23.90;60.40
9816;DHT22;4947;44.526;11.360;2022-08-01T05:03:13;24.00;60.40
9816;DHT22;4947;44.526;11.360;2022-08-01T05:05:41;24.10;59.80
9816;DHT22;4947;44.526;11.360;2022-08-01T05:08:08;24.20;59.50
9816;DHT22;4947;44.526;11.360;2022-08-01T05:10:56;24.30;59.80
9816;DHT22;4947;44.526;11.360;2022-08-01T05:13:25;24.40;59.90
9816;DHT22;4947;44.526;11.360;2022-08-01T05:15:53;24.50;59.20
9816;DHT22;4947;44.526;11.360;2022-08-01T05:18:20;24.60;59.20
9816;DHT22;4947;44.526;11.360;2022-08-01T05:20:49;24.90;59.20
9816;DHT22;4947;44.526;11.360;2022-08-01T05:23:17;25.40;58.20
9816;DHT22;4947;44.526;11.360;2022-08-01T05:25:45;26.00;56.20
9816;DHT22;4947;44.526;11.360;2022-08-01T05:28:14;26.80;54.70
9816;DHT22;4947;44.526;11.360;2022-08-01T05:30:43;27.70;52.70
9816;DHT22;4947;44.526;11.360;2022-08-01T05:33:10;28.30;51.40
9816;DHT22;4947;44.526;11.360;2022-08-01T05:35:39;29.00;49.50
9816;DHT22;4947;44.526;11.360;2022-08-01T05:38:06;29.80;48.30
9816;DHT22;4947;44.526;11.360;2022-08-01T05:40:33;30.40;46.10
9816;DHT22;4947;44.526;11.360;2022-08-01T05:43:02;30.80;45.00
9816;DHT22;4947;44.526;11.360;2022-08-01T05:45:30;31.00;44.50
9816;DHT22;4947;44.526;11.360;2022-08-01T05:47:59;31.50;43.30
9816;DHT22;4947;44.526;11.360;2022-08-01T05:50:27;31.40;43.30
9816;DHT22;4947;44.526;11.360;2022-08-01T05:52:54;31.80;43.00
9816;DHT22;4947;44.526;11.360;2022-08-01T05:55:22;32.10;42.20
9816;DHT22;4947;44.526;11.360;2022-08-01T05:57:50;32.10;41.80
9816;DHT22;4947;44.526;11.360;2022-08-01T06:00:18;32.10;41.50
9816;DHT22;4947;44.526;11.360;2022-08-01T06:02:46;32.20;41.10
9816;DHT22;4947;44.526;11.360;2022-08-01T06:05:16;32.20;40.90
9816;DHT22;4947;44.526;11.360;2022-08-01T06:07:43;32.70;40.40
9816;DHT22;4947;44.526;11.360;2022-08-01T06:10:11;32.70;40.00
9816;DHT22;4947;44.526;11.360;2022-08-01T06:12:38;32.70;40.10
9816;DHT22;4947;44.526;11.360;2022-08-01T06:15:07;33.00;39.70
9816;DHT22;4947;44.526;11.360;2022-08-01T06:17:36;33.20;39.20
9816;DHT22;4947;44.526;11.360;2022-08-01T06:20:05;33.70;39.60
9816;DHT22;4947;44.526;11.360;2022-08-01T06:22:34;33.90;39.10
9816;DHT22;4947;44.526;11.360;2022-08-01T06:25:02;34.30;38.50
9816;DHT22;4947;44.526;11.360;2022-08-01T06:27:29;34.90;38.90
9816;DHT22;4947;44.526;11.360;2022-08-01T06:29:57;35.90;37.20
9816;DHT22;4947;44.526;11.360;2022-08-01T06:32:24;36.00;36.30
9816;DHT22;4947;44.526;11.360;2022-08-01T06:34:56;34.90;36.70
9816;DHT22;4947;44.526;11.360;2022-08-01T06:37:28;35.60;36.50
9816;DHT22;4947;44.526;11.360;2022-08-01T06:40:00;36.30;36.10
9816;DHT22;4947;44.526;11.360;2022-08-01T06:42:28;36.70;35.00
9816;DHT22;4947;44.526;11.360;2022-08-01T06:44:57;37.00;35.20
9816;DHT22;4947;44.526;11.360;2022-08-01T06:47:25;36.20;35.90
9816;DHT22;4947;44.526;11.360;2022-08-01T06:49:53;36.40;35.40
9816;DHT22;4947;44.526;11.360;2022-08-01T06:52:21;37.30;35.00
9816;DHT22;4947;44.526;11.360;2022-08-01T06:54:50;36.70;33.00
9816;DHT22;4947;44.526;11.360;2022-08-01T06:57:19;36.90;33.10
9816;DHT22;4947;44.526;11.360;2022-08-01T06:59:47;36.50;32.70
9816;DHT22;4947;44.526;11.360;2022-08-01T07:02:14;36.10;33.90
9816;DHT22;4947;44.526;11.360;2022-08-01T07:04:42;36.60;33.40
9816;DHT22;4947;44.526;11.360;2022-08-01T07:07:10;36.40;32.90
9816;DHT22;4947;44.526;11.360;2022-08-01T07:09:38;36.30;33.50
9816;DHT22;4947;44.526;11.360;2022-08-01T07:12:06;36.30;32.80
9816;DHT22;4947;44.526;11.360;2022-08-01T07:14:35;36.10;32.80
9816;DHT22;4947;44.526;11.360;2022-08-01T07:17:03;36.80;33.50
9816;DHT22;4947;44.526;11.360;2022-08-01T07:19:31;36.90;32.70
9816;DHT22;4947;44.526;11.360;2022-08-01T07:21:59;36.90;32.30
9816;DHT22;4947;44.526;11.360;2022-08-01T07:24:26;37.20;32.20
9816;DHT22;4947;44.526;11.360;2022-08-01T07:26:54;37.20;32.50
9816;DHT22;4947;44.526;11.360;2022-08-01T07:29:23;37.60;32.40
9816;DHT22;4947;44.526;11.360;2022-08-01T07:31:54;37.10;32.00
9816;DHT22;4947;44.526;11.360;2022-08-01T07:34:22;37.10;32.60
9816;DHT22;4947;44.526;11.360;2022-08-01T07:36:50;37.00;32.50
9816;DHT22;4947;44.526;11.360;2022-08-01T07:39:17;36.90;33.00
9816;DHT22;4947;44.526;11.360;2022-08-01T07:41:45;36.70;32.80
9816;DHT22;4947;44.526;11.360;2022-08-01T07:44:13;37.20;33.10
9816;DHT22;4947;44.526;11.360;2022-08-01T07:46:40;37.70;32.20
9816;DHT22;4947;44.526;11.360;2022-08-01T07:49:09;37.60;32.80
9816;DHT22;4947;44.526;11.360;2022-08-01T07:51:37;37.60;32.70
9816;DHT22;4947;44.526;11.360;2022-08-01T07:54:04;38.00;32.60
9816;DHT22;4947;44.526;11.360;2022-08-01T07:56:33;37.40;32.40
9816;DHT22;4947;44.526;11.360;2022-08-01T07:59:00;38.00;32.60
9816;DHT22;4947;44.526;11.360;2022-08-01T08:01:28;37.50;32.60
9816;DHT22;4947;44.526;11.360;2022-08-01T08:03:55;38.40;32.30
9816;DHT22;4947;44.526;11.360;2022-08-01T08:06:25;38.20;32.00
9816;DHT22;4947;44.526;11.360;2022-08-01T08:08:53;38.90;31.60
9816;DHT22;4947;44.526;11.360;2022-08-01T08:11:20;38.30;32.50
9816;DHT22;4947;44.526;11.360;2022-08-01T08:13:48;38.50;32.30
9816;DHT22;4947;44.526;11.360;2022-08-01T08:16:15;37.90;32.90
9816;DHT22;4947;44.526;11.360;2022-08-01T08:18:43;38.70;32.00
9816;DHT22;4947;44.526;11.360;2022-08-01T08:21:10;38.90;32.20
9816;DHT22;4947;44.526;11.360;2022-08-01T08:23:39;39.70;31.50
9816;DHT22;4947;44.526;11.360;2022-08-01T08:26:24;39.90;30.80
9816;DHT22;4947;44.526;11.360;2022-08-01T08:28:51;40.30;30.60
9816;DHT22;4947;44.526;11.360;2022-08-01T08:31:18;40.50;30.60
9816;DHT22;4947;44.526;11.360;2022-08-01T08:33:46;39.70;30.40
9816;DHT22;4947;44.526;11.360;2022-08-01T08:36:14;39.60;31.80
9816;DHT22;4947;44.526;11.360;2022-08-01T08:38:43;39.30;31.50
9816;DHT22;4947;44.526;11.360;2022-08-01T08:41:12;39.30;31.70
9816;DHT22;4947;44.526;11.360;2022-08-01T08:43:40;39.40;31.50
9816;DHT22;4947;44.526;11.360;2022-08-01T08:46:08;39.60;31.70
9816;DHT22;4947;44.526;11.360;2022-08-01T08:48:37;39.90;31.90
9816;DHT22;4947;44.526;11.360;2022-08-01T08:51:07;39.70;31.30
9816;DHT22;4947;44.526;11.360;2022-08-01T08:53:37;39.90;30.50
9816;DHT22;4947;44.526;11.360;2022-08-01T08:56:12;39.60;31.70
9816;DHT22;4947;44.526;11.360;2022-08-01T08:58:49;40.20;31.50
9816;DHT22;4947;44.526;11.360;2022-08-01T09:01:18;40.50;31.50
9816;DHT22;4947;44.526;11.360;2022-08-01T09:03:45;39.60;31.80
9816;DHT22;4947;44.526;11.360;2022-08-01T09:06:13;39.80;31.00
9816;DHT22;4947;44.526;11.360;2022-08-01T09:08:40;39.50;31.10
9816;DHT22;4947;44.526;11.360;2022-08-01T09:11:10;39.60;31.40
9816;DHT22;4947;44.526;11.360;2022-08-01T09:13:37;40.00;31.40
9816;DHT22;4947;44.526;11.360;2022-08-01T09:16:05;40.00;30.40
9816;DHT22;4947;44.526;11.360;2022-08-01T09:18:34;40.20;31.00
9816;DHT22;4947;44.526;11.360;2022-08-01T09:21:21;40.80;31.20
9816;DHT22;4947;44.526;11.360;2022-08-01T09:23:51;40.50;31.50
9816;DHT22;4947;44.526;11.360;2022-08-01T09:26:21;41.10;30.70
9816;DHT22;4947;44.526;11.360;2022-08-01T09:28:55;40.90;29.90
9816;DHT22;4947;44.526;11.360;2022-08-01T09:31:22;40.90;30.30
9816;DHT22;4947;44.526;11.360;2022-08-01T09:33:52;41.60;29.90
9816;DHT22;4947;44.526;11.360;2022-08-01T09:36:21;41.40;29.60
9816;DHT22;4947;44.526;11.360;2022-08-01T09:38:50;40.70;31.00
9816;DHT22;4947;44.526;11.360;2022-08-01T09:41:29;41.30;30.00
9816;DHT22;4947;44.526;11.360;2022-08-01T09:43:58;41.60;29.10
9816;DHT22;4947;44.526;11.360;2022-08-01T09:46:26;41.40;29.40
9816;DHT22;4947;44.526;11.360;2022-08-01T09:48:57;41.50;29.00
9816;DHT22;4947;44.526;11.360;2022-08-01T09:51:30;41.30;28.90
9816;DHT22;4947;44.526;11.360;2022-08-01T09:54:00;40.60;29.90
9816;DHT22;4947;44.526;11.360;2022-08-01T09:56:36;40.20;29.50
9816;DHT22;4947;44.526;11.360;2022-08-01T09:59:03;39.80;30.00
9816;DHT22;4947;44.526;11.360;2022-08-01T10:01:43;39.40;30.40
9816;DHT22;4947;44.526;11.360;2022-08-01T10:04:13;39.10;30.30
9816;DHT22;4947;44.526;11.360;2022-08-01T10:06:42;38.70;29.70
9816;DHT22;4947;44.526;11.360;2022-08-01T10:09:12;38.40;30.20
9816;DHT22;4947;44.526;11.360;2022-08-01T10:11:43;37.90;30.70
9816;DHT22;4947;44.526;11.360;2022-08-01T10:14:11;37.30;32.00
9816;DHT22;4947;44.526;11.360;2022-08-01T10:16:40;37.50;32.80
9816;DHT22;4947;44.526;11.360;2022-08-01T10:19:07;37.40;32.50
9816;DHT22;4947;44.526;11.360;2022-08-01T10:21:36;37.40;33.20
9816;DHT22;4947;44.526;11.360;2022-08-01T10:24:06;37.40;33.20
9816;DHT22;4947;44.526;11.360;2022-08-01T10:26:35;37.30;33.40
9816;DHT22;4947;44.526;11.360;2022-08-01T10:29:05;37.30;33.00
9816;DHT22;4947;44.526;11.360;2022-08-01T10:31:34;37.50;33.60
9816;DHT22;4947;44.526;11.360;2022-08-01T10:34:01;37.60;32.40
9816;DHT22;4947;44.526;11.360;2022-08-01T10:36:30;37.60;32.80
9816;DHT22;4947;44.526;11.360;2022-08-01T10:38:59;37.40;32.00
9816;DHT22;4947;44.526;11.360;2022-08-01T10:41:27;37.30;32.60
9816;DHT22;4947;44.526;11.360;2022-08-01T10:43:55;37.10;31.80
9816;DHT22;4947;44.526;11.360;2022-08-01T10:46:24;37.10;32.20
9816;DHT22;4947;44.526;11.360;2022-08-01T10:48:56;36.90;32.10
9816;DHT22;4947;44.526;11.360;2022-08-01T10:51:26;36.80;32.20
9816;DHT22;4947;44.526;11.360;2022-08-01T10:53:54;36.80;32.30
9816;DHT22;4947;44.526;11.360;2022-08-01T10:56:23;36.80;32.40
9816;DHT22;4947;44.526;11.360;2022-08-01T10:59:00;36.70;32.20
9816;DHT22;4947;44.526;11.360;2022-08-01T11:01:30;36.80;32.50
9816;DHT22;4947;44.526;11.360;2022-08-01T11:04:03;36.60;31.70
9816;DHT22;4947;44.526;11.360;2022-08-01T11:06:52;36.70;32.30
9816;DHT22;4947;44.526;11.360;2022-08-01T11:09:29;36.80;31.40
9816;DHT22;4947;44.526;11.360;2022-08-01T11:12:02;36.30;32.00
9816;DHT22;4947;44.526;11.360;2022-08-01T11:14:32;36.20;32.50
9816;DHT22;4947;44.526;11.360;2022-08-01T11:17:33;36.10;32.20
9816;DHT22;4947;44.526;11.360;2022-08-01T11:20:08;36.00;31.80
9816;DHT22;4947;44.526;11.360;2022-08-01T11:26:11;36.20;32.30
9816;DHT22;4947;44.526;11.360;2022-08-01T11:28:40;36.40;32.00
9816;DHT22;4947;44.526;11.360;2022-08-01T11:31:29;36.40;31.20
9816;DHT22;4947;44.526;11.360;2022-08-01T11:33:59;36.30;31.30
9816;DHT22;4947;44.526;11.360;2022-08-01T11:36:27;36.20;30.90
9816;DHT22;4947;44.526;11.360;2022-08-01T11:39:13;36.20;31.30
9816;DHT22;4947;44.526;11.360;2022-08-01T11:41:43;36.30;32.30
9816;DHT22;4947;44.526;11.360;2022-08-01T11:44:12;36.40;31.60
9816;DHT22;4947;44.526;11.360;2022-08-01T11:47:02;36.50;30.80
9816;DHT22;4947;44.526;11.360;2022-08-01T11:49:42;36.70;31.20
9816;DHT22;4947;44.526;11.360;2022-08-01T11:52:13;36.50;31.10
9816;DHT22;4947;44.526;11.360;2022-08-01T11:54:48;36.40;31.50
9816;DHT22;4947;44.526;11.360;2022-08-01T11:57:18;36.50;32.00
9816;DHT22;4947;44.526;11.360;2022-08-01T11:59:47;36.50;31.70
9816;DHT22;4947;44.526;11.360;2022-08-01T12:02:17;36.30;31.40
9816;DHT22;4947;44.526;11.360;2022-08-01T12:04:57;36.30;31.60
9816;DHT22;4947;44.526;11.360;2022-08-01T12:07:26;36.50;31.20
9816;DHT22;4947;44.526;11.360;2022-08-01T12:10:00;36.50;31.30
9816;DHT22;4947;44.526;11.360;2022-08-01T12:12:28;36.60;30.20
9816;DHT22;4947;44.526;11.360;2022-08-01T12:14:58;36.60;30.10
9816;DHT22;4947;44.526;11.360;2022-08-01T12:17:33;36.60;30.40
9816;DHT22;4947;44.526;11.360;2022-08-01T12:20:05;36.70;30.70
9816;DHT22;4947;44.526;11.360;2022-08-01T12:22:32;36.60;30.30
9816;DHT22;4947;44.526;11.360;2022-08-01T12:25:08;36.60;30.10
9816;DHT22;4947;44.526;11.360;2022-08-01T12:27:36;36.60;30.30
9816;DHT22;4947;44.526;11.360;2022-08-01T12:30:06;36.40;30.00
9816;DHT22;4947;44.526;11.360;2022-08-01T12:32:35;36.20;30.30
9816;DHT22;4947;44.526;11.360;2022-08-01T12:35:11;36.20;30.10
9816;DHT22;4947;44.526;11.360;2022-08-01T12:37:41;36.40;30.10
9816;DHT22;4947;44.526;11.360;2022-08-01T12:40:11;36.50;30.30
9816;DHT22;4947;44.526;11.360;2022-08-01T12:42:40;36.60;30.00
9816;DHT22;4947;44.526;11.360;2022-08-01T12:45:09;36.60;30.40
9816;DHT22;4947;44.526;11.360;2022-08-01T12:47:39;36.60;30.50
9816;DHT22;4947;44.526;11.360;2022-08-01T12:50:12;36.60;30.10
9816;DHT22;4947;44.526;11.360;2022-08-01T12:52:40;36.30;30.00
9816;DHT22;4947;44.526;11.360;2022-08-01T12:55:13;36.10;30.10
9816;DHT22;4947;44.526;11.360;2022-08-01T12:57:42;36.00;31.10
9816;DHT22;4947;44.526;11.360;2022-08-01T13:00:14;36.10;30.00
9816;DHT22;4947;44.526;11.360;2022-08-01T13:02:42;36.20;30.60
9816;DHT22;4947;44.526;11.360;2022-08-01T13:05:16;36.30;30.60
9816;DHT22;4947;44.526;11.360;2022-08-01T13:07:46;36.40;29.40
9816;DHT22;4947;44.526;11.360;2022-08-01T13:10:23;36.40;29.20
9816;DHT22;4947;44.526;11.360;2022-08-01T13:12:53;36.50;29.40
9816;DHT22;4947;44.526;11.360;2022-08-01T13:15:25;36.50;29.10
9816;DHT22;4947;44.526;11.360;2022-08-01T13:17:54;36.60;28.90
9816;DHT22;4947;44.526;11.360;2022-08-01T13:20:28;36.40;28.90
9816;DHT22;4947;44.526;11.360;2022-08-01T13:23:10;36.50;29.20
9816;DHT22;4947;44.526;11.360;2022-08-01T13:25:47;36.40;29.60
9816;DHT22;4947;44.526;11.360;2022-08-01T13:28:16;36.30;29.60
9816;DHT22;4947;44.526;11.360;2022-08-01T13:30:59;36.40;29.80
9816;DHT22;4947;44.526;11.360;2022-08-01T13:33:28;36.50;29.80
9816;DHT22;4947;44.526;11.360;2022-08-01T13:36:08;36.60;29.80
9816;DHT22;4947;44.526;11.360;2022-08-01T13:38:42;36.50;29.40
9816;DHT22;4947;44.526;11.360;2022-08-01T13:41:27;36.30;29.60
9816;DHT22;4947;44.526;11.360;2022-08-01T13:43:54;36.20;29.50
9816;DHT22;4947;44.526;11.360;2022-08-01T13:46:22;36.30;29.70
9816;DHT22;4947;44.526;11.360;2022-08-01T13:48:49;36.30;29.90
9816;DHT22;4947;44.526;11.360;2022-08-01T13:51:19;36.40;29.70
9816;DHT22;4947;44.526;11.360;2022-08-01T13:53:46;36.40;29.70
9816;DHT22;4947;44.526;11.360;2022-08-01T13:56:13;36.40;29.50
9816;DHT22;4947;44.526;11.360;2022-08-01T13:58:41;36.40;29.70
9816;DHT22;4947;44.526;11.360;2022-08-01T14:01:09;36.40;29.40
9816;DHT22;4947;44.526;11.360;2022-08-01T14:03:37;36.50;29.60
9816;DHT22;4947;44.526;11.360;2022-08-01T14:06:06;36.60;30.00
9816;DHT22;4947;44.526;11.360;2022-08-01T14:08:35;36.70;29.30
9816;DHT22;4947;44.526;11.360;2022-08-01T14:11:03;36.60;29.10
9816;DHT22;4947;44.526;11.360;2022-08-01T14:13:31;36.60;29.30
9816;DHT22;4947;44.526;11.360;2022-08-01T14:15:59;36.30;29.00
9816;DHT22;4947;44.526;11.360;2022-08-01T14:18:27;36.20;29.00
9816;DHT22;4947;44.526;11.360;2022-08-01T14:20:54;36.20;29.20
9816;DHT22;4947;44.526;11.360;2022-08-01T14:23:22;36.20;29.20
9816;DHT22;4947;44.526;11.360;2022-08-01T14:25:52;36.30;30.00
9816;DHT22;4947;44.526;11.360;2022-08-01T14:28:19;36.30;29.60
9816;DHT22;4947;44.526;11.360;2022-08-01T14:30:47;36.20;29.50
9816;DHT22;4947;44.526;11.360;2022-08-01T14:33:18;36.20;29.30
9816;DHT22;4947;44.526;11.360;2022-08-01T14:35:46;36.20;29.50
9816;DHT22;4947;44.526;11.360;2022-08-01T14:38:13;36.40;29.40
9816;DHT22;4947;44.526;11.360;2022-08-01T14:40:41;36.60;29.20
9816;DHT22;4947;44.526;11.360;2022-08-01T14:43:10;36.70;28.40
9816;DHT22;4947;44.526;11.360;2022-08-01T14:45:38;36.70;28.10
9816;DHT22;4947;44.526;11.360;2022-08-01T14:48:05;36.60;27.80
9816;DHT22;4947;44.526;11.360;2022-08-01T14:50:34;36.60;27.70
9816;DHT22;4947;44.526;11.360;2022-08-01T14:53:01;36.60;27.90
9816;DHT22;4947;44.526;11.360;2022-08-01T14:55:29;36.60;28.00
9816;DHT22;4947;44.526;11.360;2022-08-01T14:57:56;36.70;28.20
9816;DHT22;4947;44.526;11.360;2022-08-01T15:00:25;36.80;27.00
9816;DHT22;4947;44.526;11.360;2022-08-01T15:03:00;36.70;27.40
9816;DHT22;4947;44.526;11.360;2022-08-01T15:05:27;36.80;28.10
9816;DHT22;4947;44.526;11.360;2022-08-01T15:07:56;36.80;27.90
9816;DHT22;4947;44.526;11.360;2022-08-01T15:10:23;36.70;28.00
9816;DHT22;4947;44.526;11.360;2022-08-01T15:12:51;36.50;28.60
9816;DHT22;4947;44.526;11.360;2022-08-01T15:15:19;36.40;28.70
9816;DHT22;4947;44.526;11.360;2022-08-01T15:17:48;36.30;28.20
9816;DHT22;4947;44.526;11.360;2022-08-01T15:20:18;36.30;27.60
9816;DHT22;4947;44.526;11.360;2022-08-01T15:22:45;36.30;28.40
9816;DHT22;4947;44.526;11.360;2022-08-01T15:25:13;36.40;27.80
9816;DHT22;4947;44.526;11.360;2022-08-01T15:27:41;36.30;27.00
9816;DHT22;4947;44.526;11.360;2022-08-01T15:30:09;36.30;28.00
9816;DHT22;4947;44.526;11.360;2022-08-01T15:32:37;36.40;27.50
9816;DHT22;4947;44.526;11.360;2022-08-01T15:35:07;36.40;27.80
9816;DHT22;4947;44.526;11.360;2022-08-01T15:37:36;36.40;27.90
9816;DHT22;4947;44.526;11.360;2022-08-01T15:40:05;36.50;27.40
9816;DHT22;4947;44.526;11.360;2022-08-01T15:42:32;36.50;27.40
9816;DHT22;4947;44.526;11.360;2022-08-01T15:45:00;36.50;27.40
9816;DHT22;4947;44.526;11.360;2022-08-01T15:47:28;36.60;28.00
9816;DHT22;4947;44.526;11.360;2022-08-01T15:49:55;36.20;27.20
9816;DHT22;4947;44.526;11.360;2022-08-01T15:52:26;36.20;27.70
9816;DHT22;4947;44.526;11.360;2022-08-01T15:54:54;36.30;27.90
9816;DHT22;4947;44.526;11.360;2022-08-01T15:57:21;36.30;27.60
9816;DHT22;4947;44.526;11.360;2022-08-01T15:59:49;36.30;29.10
9816;DHT22;4947;44.526;11.360;2022-08-01T16:02:16;36.20;30.90
9816;DHT22;4947;44.526;11.360;2022-08-01T16:04:44;36.10;31.90